sensor_id;sensor_type;location;lat;lon;timestamp;temperature;humidity
25170;DHT22;13129;48.012;10.352;2023-01-26T04:30:31;-1.70;99.90
25170;DHT22;13129;48.012;10.352;2023-01-26T04:32:57;-1.60;99.90
25170;DHT22;13129;48.012;10.352;2023-01-26T04:35:23;-1.60;99.90
25170;DHT22;13129;48.012;10.352;2023-01-26T04:37:49;-1.60;99.90
25170;DHT22;13129;48.012;10.352;2023-01-26T04:40:15;-1.60;99.90
25170;DHT22;13129;48.012;10.352;2023-01-26T04:42:40;-1.50;99.90
25170;DHT22;13129;48.012;10.352;2023-01-26T04:45:06;-1.50;99.90
25170;DHT22;13129;48.012;10.352;2023-01-26T04:47:33;-1.50;99.90
25170;DHT22;13129;48.012;10.352;2023-01-26T04:49:58;-1.30;99.90
25170;DHT22;13129;48.012;10.352;2023-01-26T04:52:24;-1.50;99.90
25170;DHT22;13129;48.012;10.352;2023-01-26T04:54:50;-1.50;99.90
25170;DHT22;13129;48.012;10.352;2023-01-26T04:57:15;-1.50;99.90
25170;DHT22;13129;48.012;10.352;2023-01-26T04:59:44;-1.50;99.90
25170;DHT22;13129;48.012;10.352;2023-01-26T05:02:10;-1.50;99.90
25170;DHT22;13129;48.012;10.352;2023-01-26T05:04:36;-1.50;99.90
25170;DHT22;13129;48.012;10.352;2023-01-26T05:07:02;-1.50;99.90
25170;DHT22;13129;48.012;10.352;2023-01-26T05:09:27;-1.50;99.90
25170;DHT22;13129;48.012;10.352;2023-01-26T05:11:53;-1.40;99.90
25170;DHT22;13129;48.012;10.352;2023-01-26T05:14:19;-1.40;99.90
25170;DHT22;13129;48.012;10.352;2023-01-26T05:16:44;-1.20;99.90
25170;DHT22;13129;48.012;10.352;2023-01-26T05:19:10;-1.30;99.90
25170;DHT22;13129;48.012;10.352;2023-01-26T05:21:36;-1.30;99.90
25170;DHT22;13129;48.012;10.352;2023-01-26T05:24:01;-1.40;99.90
25170;DHT22;13129;48.012;10.352;2023-01-26T05:26:27;-1.30;99.90
25170;DHT22;13129;48.012;10.352;2023-01-26T05:28:52;-1.40;99.90
25170;DHT22;13129;48.012;10.352;2023-01-26T05:31:18;-1.40;99.90
25170;DHT22;13129;48.012;10.352;2023-01-26T05:33:44;-1.40;99.90
25170;DHT22;13129;48.012;10.352;2023-01-26T05:36:09;-1.40;99.90
25170;DHT22;13129;48.012;10.352;2023-01-26T05:38:35;-1.40;99.90
25170;DHT22;13129;48.012;10.352;2023-01-26T05:41:01;-1.40;99.90
25170;DHT22;13129;48.012;10.352;2023-01-26T05:43:26;-1.40;99.90
25170;DHT22;13129;48.012;10.352;2023-01-26T05:45:52;-1.40;99.90
25170;DHT22;13129;48.012;10.352;2023-01-26T05:48:17;-1.30;99.90
25170;DHT22;13129;48.012;10.352;2023-01-26T05:50:43;-1.40;99.90
25170;DHT22;13129;48.012;10.352;2023-01-26T05:53:09;-1.40;99.90
25170;DHT22;13129;48.012;10.352;2023-01-26T05:55:35;-1.40;99.90
25170;DHT22;13129;48.012;10.352;2023-01-26T05:58:01;-1.30;99.90
25170;DHT22;13129;48.012;10.352;2023-01-26T06:00:26;-1.30;99.90
25170;DHT22;13129;48.012;10.352;2023-01-26T06:02:52;-1.30;99.90
25170;DHT22;13129;48.012;10.352;2023-01-26T06:05:18;-1.40;99.90
25170;DHT22;13129;48.012;10.352;2023-01-26T06:07:44;-1.40;99.90
25170;DHT22;13129;48.012;10.352;2023-01-26T06:10:10;-1.40;99.90
25170;DHT22;13129;48.012;10.352;2023-01-26T06:12:36;-1.40;99.90
25170;DHT22;13129;48.012;10.352;2023-01-26T06:15:04;-1.20;99.90
25170;DHT22;13129;48.012;10.352;2023-01-26T06:17:30;-1.40;99.90
25170;DHT22;13129;48.012;10.352;2023-01-26T06:19:56;-1.40;99.90
25170;DHT22;13129;48.012;10.352;2023-01-26T06:22:21;-1.40;99.90
25170;DHT22;13129;48.012;10.352;2023-01-26T06:24:47;-1.40;99.90
25170;DHT22;13129;48.012;10.352;2023-01-26T06:27:14;-1.40;99.90
25170;DHT22;13129;48.012;10.352;2023-01-26T06:29:41;-1.40;99.90
25170;DHT22;13129;48.012;10.352;2023-01-26T06:32:09;-1.40;99.90
25170;DHT22;13129;48.012;10.352;2023-01-26T06:34:35;-1.40;99.90
25170;DHT22;13129;48.012;10.352;2023-01-26T06:37:01;-1.40;99.90
25170;DHT22;13129;48.012;10.352;2023-01-26T06:39:26;-1.40;99.90
25170;DHT22;13129;48.012;10.352;2023-01-26T06:41:52;-1.40;99.90
25170;DHT22;13129;48.012;10.352;2023-01-26T06:44:17;-1.40;99.90
25170;DHT22;13129;48.012;10.352;2023-01-26T06:46:43;-1.40;99.90
25170;DHT22;13129;48.012;10.352;2023-01-26T06:49:08;-1.40;99.90
25170;DHT22;13129;48.012;10.352;2023-01-26T06:51:47;-1.40;99.90
25170;DHT22;13129;48.012;10.352;2023-01-26T06:54:16;-1.40;99.90
25170;DHT22;13129;48.012;10.352;2023-01-26T06:56:42;-1.40;99.90
25170;DHT22;13129;48.012;10.352;2023-01-26T06:59:07;-1.40;99.90
25170;DHT22;13129;48.012;10.352;2023-01-26T07:01:39;-1.50;99.90
25170;DHT22;13129;48.012;10.352;2023-01-26T07:04:05;-1.40;99.90
25170;DHT22;13129;48.012;10.352;2023-01-26T07:06:31;-1.50;99.90
25170;DHT22;13129;48.012;10.352;2023-01-26T07:08:57;-1.50;99.90
25170;DHT22;13129;48.012;10.352;2023-01-26T07:11:23;-1.40;99.90
25170;DHT22;13129;48.012;10.352;2023-01-26T07:13:50;-1.50;99.90
25170;DHT22;13129;48.012;10.352;2023-01-26T07:16:16;-1.40;99.90
25170;DHT22;13129;48.012;10.352;2023-01-26T07:18:42;-1.40;99.90
25170;DHT22;13129;48.012;10.352;2023-01-26T07:21:16;-1.50;99.90
25170;DHT22;13129;48.012;10.352;2023-01-26T07:23:47;-1.60;99.90
25170;DHT22;13129;48.012;10.352;2023-01-26T07:26:14;-1.50;99.90
25170;DHT22;13129;48.012;10.352;2023-01-26T07:28:40;-1.40;99.90
25170;DHT22;13129;48.012;10.352;2023-01-26T07:31:06;-1.30;99.90
25170;DHT22;13129;48.012;10.352;2023-01-26T07:33:33;-1.30;99.90
25170;DHT22;13129;48.012;10.352;2023-01-26T07:36:00;-1.30;99.90
25170;DHT22;13129;48.012;10.352;2023-01-26T07:38:26;-1.30;99.90
25170;DHT22;13129;48.012;10.352;2023-01-26T07:40:53;-1.20;99.90
25170;DHT22;13129;48.012;10.352;2023-01-26T07:43:19;-1.30;99.90
25170;DHT22;13129;48.012;10.352;2023-01-26T07:45:46;-1.20;99.90
25170;DHT22;13129;48.012;10.352;2023-01-26T07:48:11;-1.30;99.90
25170;DHT22;13129;48.012;10.352;2023-01-26T07:50:37;-1.20;99.90
25170;DHT22;13129;48.012;10.352;2023-01-26T07:53:03;-1.20;99.90
25170;DHT22;13129;48.012;10.352;2023-01-26T07:55:28;-1.20;99.90
25170;DHT22;13129;48.012;10.352;2023-01-26T07:57:54;-1.10;99.90
25170;DHT22;13129;48.012;10.352;2023-01-26T08:00:20;-1.10;99.90
25170;DHT22;13129;48.012;10.352;2023-01-26T08:02:49;-1.10;99.90
25170;DHT22;13129;48.012;10.352;2023-01-26T08:05:15;-1.10;99.90
25170;DHT22;13129;48.012;10.352;2023-01-26T08:07:41;-1.00;99.90
25170;DHT22;13129;48.012;10.352;2023-01-26T08:10:07;-1.00;99.90
25170;DHT22;13129;48.012;10.352;2023-01-26T08:12:36;-0.90;99.90
25170;DHT22;13129;48.012;10.352;2023-01-26T08:15:03;-0.90;99.90
25170;DHT22;13129;48.012;10.352;2023-01-26T08:17:30;-0.90;99.90
25170;DHT22;13129;48.012;10.352;2023-01-26T08:19:58;-0.80;99.90
25170;DHT22;13129;48.012;10.352;2023-01-26T08:22:24;-0.80;99.90
25170;DHT22;13129;48.012;10.352;2023-01-26T08:24:49;-0.80;99.90
25170;DHT22;13129;48.012;10.352;2023-01-26T08:27:15;-0.80;99.90
25170;DHT22;13129;48.012;10.352;2023-01-26T08:29:41;-0.70;99.90
25170;DHT22;13129;48.012;10.352;2023-01-26T08:32:07;-0.80;99.90
25170;DHT22;13129;48.012;10.352;2023-01-26T08:34:34;-0.70;99.90
25170;DHT22;13129;48.012;10.352;2023-01-26T08:37:00;-0.70;99.90
25170;DHT22;13129;48.012;10.352;2023-01-26T08:39:26;-0.70;99.90
25170;DHT22;13129;48.012;10.352;2023-01-26T08:41:52;-0.70;99.90
25170;DHT22;13129;48.012;10.352;2023-01-26T08:44:17;-0.70;99.90
25170;DHT22;13129;48.012;10.352;2023-01-26T08:46:43;-0.60;99.90
25170;DHT22;13129;48.012;10.352;2023-01-26T08:49:09;-0.60;99.90
25170;DHT22;13129;48.012;10.352;2023-01-26T08:51:35;-0.50;99.90
25170;DHT22;13129;48.012;10.352;2023-01-26T08:54:03;-0.50;99.90
25170;DHT22;13129;48.012;10.352;2023-01-26T08:56:29;-0.50;99.90
25170;DHT22;13129;48.012;10.352;2023-01-26T08:58:55;-0.50;99.90
25170;DHT22;13129;48.012;10.352;2023-01-26T09:01:20;-0.40;99.90
25170;DHT22;13129;48.012;10.352;2023-01-26T09:03:46;-0.40;99.90
25170;DHT22;13129;48.012;10.352;2023-01-26T09:06:12;-0.40;99.90
25170;DHT22;13129;48.012;10.352;2023-01-26T09:08:39;-0.40;99.90
25170;DHT22;13129;48.012;10.352;2023-01-26T09:11:05;-0.30;99.90
25170;DHT22;13129;48.012;10.352;2023-01-26T09:13:31;-0.40;99.90
25170;DHT22;13129;48.012;10.352;2023-01-26T09:15:57;-0.40;99.90
25170;DHT22;13129;48.012;10.352;2023-01-26T09:18:22;-0.30;99.90
25170;DHT22;13129;48.012;10.352;2023-01-26T09:20:48;-0.20;99.90
25170;DHT22;13129;48.012;10.352;2023-01-26T09:23:16;-0.20;99.90
25170;DHT22;13129;48.012;10.352;2023-01-26T09:25:43;-0.20;99.90
25170;DHT22;13129;48.012;10.352;2023-01-26T09:28:08;0.00;99.90
25170;DHT22;13129;48.012;10.352;2023-01-26T09:30:34;0.10;99.90
25170;DHT22;13129;48.012;10.352;2023-01-26T09:33:02;0.20;99.90
25170;DHT22;13129;48.012;10.352;2023-01-26T09:35:29;0.30;99.90
25170;DHT22;13129;48.012;10.352;2023-01-26T09:37:54;0.30;99.90
25170;DHT22;13129;48.012;10.352;2023-01-26T09:43:31;0.30;99.90
25170;DHT22;13129;48.012;10.352;2023-01-26T09:46:27;0.30;99.90
25170;DHT22;13129;48.012;10.352;2023-01-26T09:51:37;0.30;99.90
25170;DHT22;13129;48.012;10.352;2023-01-26T09:56:54;0.30;99.90
25170;DHT22;13129;48.012;10.352;2023-01-26T09:59:33;0.30;99.90
25170;DHT22;13129;48.012;10.352;2023-01-26T10:04:36;0.20;99.90
25170;DHT22;13129;48.012;10.352;2023-01-26T10:07:11;0.30;99.90
25170;DHT22;13129;48.012;10.352;2023-01-26T10:09:39;0.30;99.90
25170;DHT22;13129;48.012;10.352;2023-01-26T10:12:11;0.40;99.90
25170;DHT22;13129;48.012;10.352;2023-01-26T10:17:32;0.30;99.90
25170;DHT22;13129;48.012;10.352;2023-01-26T10:22:49;0.20;99.90
25170;DHT22;13129;48.012;10.352;2023-01-26T10:25:27;0.20;99.90
25170;DHT22;13129;48.012;10.352;2023-01-26T10:27:55;0.20;99.90
25170;DHT22;13129;48.012;10.352;2023-01-26T10:30:21;0.40;99.90
25170;DHT22;13129;48.012;10.352;2023-01-26T10:32:50;0.40;99.90
25170;DHT22;13129;48.012;10.352;2023-01-26T10:35:19;0.30;99.90
25170;DHT22;13129;48.012;10.352;2023-01-26T10:37:45;0.40;99.90
25170;DHT22;13129;48.012;10.352;2023-01-26T10:40:11;0.30;99.90
25170;DHT22;13129;48.012;10.352;2023-01-26T10:42:38;0.30;99.90
25170;DHT22;13129;48.012;10.352;2023-01-26T10:45:28;0.40;99.90
25170;DHT22;13129;48.012;10.352;2023-01-26T10:48:25;0.40;99.90
25170;DHT22;13129;48.012;10.352;2023-01-26T10:50:52;0.50;99.90
25170;DHT22;13129;48.012;10.352;2023-01-26T10:53:26;0.50;99.90
25170;DHT22;13129;48.012;10.352;2023-01-26T10:56:05;0.50;99.90
25170;DHT22;13129;48.012;10.352;2023-01-26T10:58:56;0.60;99.90
25170;DHT22;13129;48.012;10.352;2023-01-26T11:01:25;0.60;99.90
25170;DHT22;13129;48.012;10.352;2023-01-26T11:04:06;0.70;99.90
25170;DHT22;13129;48.012;10.352;2023-01-26T11:06:32;0.70;99.90
25170;DHT22;13129;48.012;10.352;2023-01-26T11:11:55;0.60;99.90
25170;DHT22;13129;48.012;10.352;2023-01-26T11:14:22;0.60;99.90
25170;DHT22;13129;48.012;10.352;2023-01-26T11:22:32;0.80;99.90
25170;DHT22;13129;48.012;10.352;2023-01-26T11:25:14;0.80;99.90
25170;DHT22;13129;48.012;10.352;2023-01-26T11:28:03;0.60;99.90
25170;DHT22;13129;48.012;10.352;2023-01-26T11:33:00;0.60;99.90
25170;DHT22;13129;48.012;10.352;2023-01-26T11:35:46;0.50;99.90
25170;DHT22;13129;48.012;10.352;2023-01-26T11:46:38;0.30;99.90
25170;DHT22;13129;48.012;10.352;2023-01-26T11:49:52;0.30;99.90
25170;DHT22;13129;48.012;10.352;2023-01-26T12:00:01;0.30;99.90
25170;DHT22;13129;48.012;10.352;2023-01-26T12:02:35;0.40;99.90
25170;DHT22;13129;48.012;10.352;2023-01-26T12:05:29;0.50;99.90
25170;DHT22;13129;48.012;10.352;2023-01-26T12:07:59;0.50;99.90
25170;DHT22;13129;48.012;10.352;2023-01-26T12:10:47;0.50;99.90
25170;DHT22;13129;48.012;10.352;2023-01-26T12:13:33;0.30;99.90
25170;DHT22;13129;48.012;10.352;2023-01-26T12:16:16;0.30;99.90
25170;DHT22;13129;48.012;10.352;2023-01-26T12:19:20;0.30;99.90
25170;DHT22;13129;48.012;10.352;2023-01-26T12:21:49;0.40;99.90
25170;DHT22;13129;48.012;10.352;2023-01-26T12:24:21;0.30;99.90
25170;DHT22;13129;48.012;10.352;2023-01-26T12:26:51;0.40;99.90
25170;DHT22;13129;48.012;10.352;2023-01-26T12:30:04;0.40;99.90
25170;DHT22;13129;48.012;10.352;2023-01-26T12:32:26;0.40;99.90
25170;DHT22;13129;48.012;10.352;2023-01-26T12:34:52;0.40;99.90
25170;DHT22;13129;48.012;10.352;2023-01-26T12:40:08;0.40;99.90
25170;DHT22;13129;48.012;10.352;2023-01-26T12:45:39;0.30;99.90
25170;DHT22;13129;48.012;10.352;2023-01-26T12:48:16;0.20;99.90
25170;DHT22;13129;48.012;10.352;2023-01-26T12:50:46;0.20;99.90
25170;DHT22;13129;48.012;10.352;2023-01-26T12:53:17;0.20;99.90
25170;DHT22;13129;48.012;10.352;2023-01-26T12:55:53;0.30;99.90
25170;DHT22;13129;48.012;10.352;2023-01-26T12:58:28;0.40;99.90
25170;DHT22;13129;48.012;10.352;2023-01-26T13:01:08;0.50;99.90
25170;DHT22;13129;48.012;10.352;2023-01-26T13:03:38;0.40;99.90
25170;DHT22;13129;48.012;10.352;2023-01-26T13:11:05;0.40;99.90
25170;DHT22;13129;48.012;10.352;2023-01-26T13:13:55;0.20;99.90
25170;DHT22;13129;48.012;10.352;2023-01-26T13:18:51;0.20;99.90
25170;DHT22;13129;48.012;10.352;2023-01-26T13:26:51;0.30;99.90
25170;DHT22;13129;48.012;10.352;2023-01-26T13:34:45;0.10;99.90
25170;DHT22;13129;48.012;10.352;2023-01-26T13:37:16;0.20;99.90
25170;DHT22;13129;48.012;10.352;2023-01-26T13:39:46;0.30;99.90
25170;DHT22;13129;48.012;10.352;2023-01-26T13:42:21;0.50;99.90
25170;DHT22;13129;48.012;10.352;2023-01-26T13:44:55;0.50;99.90
25170;DHT22;13129;48.012;10.352;2023-01-26T13:47:27;0.40;99.90
25170;DHT22;13129;48.012;10.352;2023-01-26T13:49:54;0.30;99.90
25170;DHT22;13129;48.012;10.352;2023-01-26T13:52:22;0.30;99.90
25170;DHT22;13129;48.012;10.352;2023-01-26T13:54:49;0.30;99.90
25170;DHT22;13129;48.012;10.352;2023-01-26T13:57:22;0.20;99.90
25170;DHT22;13129;48.012;10.352;2023-01-26T13:59:49;0.10;99.90
25170;DHT22;13129;48.012;10.352;2023-01-26T14:02:31;0.00;99.90
25170;DHT22;13129;48.012;10.352;2023-01-26T14:04:58;-0.10;99.90
25170;DHT22;13129;48.012;10.352;2023-01-26T14:09:59;-0.10;99.90
25170;DHT22;13129;48.012;10.352;2023-01-26T14:12:35;-0.20;99.90
25170;DHT22;13129;48.012;10.352;2023-01-26T14:15:07;-0.10;99.90
25170;DHT22;13129;48.012;10.352;2023-01-26T14:17:51;-0.10;99.90
25170;DHT22;13129;48.012;10.352;2023-01-26T14:20:29;-0.10;99.90
25170;DHT22;13129;48.012;10.352;2023-01-26T14:25:40;-0.10;99.90
25170;DHT22;13129;48.012;10.352;2023-01-26T14:28:16;0.00;99.90
25170;DHT22;13129;48.012;10.352;2023-01-26T14:30:50;0.00;99.90
25170;DHT22;13129;48.012;10.352;2023-01-26T14:33:17;0.00;99.90
25170;DHT22;13129;48.012;10.352;2023-01-26T14:35:57;-0.10;99.90
25170;DHT22;13129;48.012;10.352;2023-01-26T14:38:23;-0.10;99.90
25170;DHT22;13129;48.012;10.352;2023-01-26T14:40:54;-0.20;99.90
25170;DHT22;13129;48.012;10.352;2023-01-26T14:43:21;-0.20;99.90
25170;DHT22;13129;48.012;10.352;2023-01-26T14:46:06;-0.20;99.90
25170;DHT22;13129;48.012;10.352;2023-01-26T14:48:57;-0.20;99.90
25170;DHT22;13129;48.012;10.352;2023-01-26T14:51:25;-0.30;99.90
25170;DHT22;13129;48.012;10.352;2023-01-26T14:53:57;-0.30;99.90
25170;DHT22;13129;48.012;10.352;2023-01-26T14:56:32;-0.30;99.90
25170;DHT22;13129;48.012;10.352;2023-01-26T14:59:00;-0.40;99.90
25170;DHT22;13129;48.012;10.352;2023-01-26T15:01:27;-0.40;99.90
25170;DHT22;13129;48.012;10.352;2023-01-26T15:04:02;-0.30;99.90
25170;DHT22;13129;48.012;10.352;2023-01-26T15:06:30;-0.40;99.90
25170;DHT22;13129;48.012;10.352;2023-01-26T15:09:03;-0.40;99.90
25170;DHT22;13129;48.012;10.352;2023-01-26T15:11:37;-0.40;99.90
25170;DHT22;13129;48.012;10.352;2023-01-26T15:14:32;-0.40;99.90
25170;DHT22;13129;48.012;10.352;2023-01-26T15:16:58;-0.40;99.90
25170;DHT22;13129;48.012;10.352;2023-01-26T15:19:25;-0.50;99.90
25170;DHT22;13129;48.012;10.352;2023-01-26T15:21:52;-0.50;99.90
25170;DHT22;13129;48.012;10.352;2023-01-26T15:24:17;-0.40;99.90
25170;DHT22;13129;48.012;10.352;2023-01-26T15:26:43;-0.40;99.90
25170;DHT22;13129;48.012;10.352;2023-01-26T15:29:27;-0.40;99.90
25170;DHT22;13129;48.012;10.352;2023-01-26T15:31:56;-0.50;99.90
25170;DHT22;13129;48.012;10.352;2023-01-26T15:34:32;-0.50;99.90
25170;DHT22;13129;48.012;10.352;2023-01-26T15:36:58;-0.50;99.90
25170;DHT22;13129;48.012;10.352;2023-01-26T15:39:24;-0.60;99.90
25170;DHT22;13129;48.012;10.352;2023-01-26T15:42:20;-0.60;99.90
25170;DHT22;13129;48.012;10.352;2023-01-26T15:44:46;-0.70;99.90
25170;DHT22;13129;48.012;10.352;2023-01-26T15:47:12;-0.60;99.90
25170;DHT22;13129;48.012;10.352;2023-01-26T15:49:38;-0.70;99.90
25170;DHT22;13129;48.012;10.352;2023-01-26T15:52:19;-0.80;99.90
25170;DHT22;13129;48.012;10.352;2023-01-26T15:54:47;-0.90;99.90
25170;DHT22;13129;48.012;10.352;2023-01-26T15:57:14;-0.90;99.90
25170;DHT22;13129;48.012;10.352;2023-01-26T15:59:39;-1.00;99.90
25170;DHT22;13129;48.012;10.352;2023-01-26T16:02:14;-1.00;99.90
25170;DHT22;13129;48.012;10.352;2023-01-26T16:04:40;-1.00;99.90
25170;DHT22;13129;48.012;10.352;2023-01-26T16:07:13;-1.10;99.90
25170;DHT22;13129;48.012;10.352;2023-01-26T16:09:40;-1.00;99.90
25170;DHT22;13129;48.012;10.352;2023-01-26T16:12:15;-1.10;99.90
25170;DHT22;13129;48.012;10.352;2023-01-26T16:14:41;-1.10;99.90
25170;DHT22;13129;48.012;10.352;2023-01-26T16:17:13;-1.10;99.90
25170;DHT22;13129;48.012;10.352;2023-01-26T16:19:39;-1.10;99.90
25170;DHT22;13129;48.012;10.352;2023-01-26T16:22:05;-1.10;99.90
25170;DHT22;13129;48.012;10.352;2023-01-26T16:24:30;-1.10;99.90
25170;DHT22;13129;48.012;10.352;2023-01-26T16:26:56;-1.10;99.90
25170;DHT22;13129;48.012;10.352;2023-01-26T16:29:22;-1.10;99.90
25170;DHT22;13129;48.012;10.352;2023-01-26T16:31:47;-1.10;99.90
25170;DHT22;13129;48.012;10.352;2023-01-26T16:34:13;-1.10;99.90
25170;DHT22;13129;48.012;10.352;2023-01-26T16:36:38;-1.10;99.90
25170;DHT22;13129;48.012;10.352;2023-01-26T16:39:04;-1.10;99.90
25170;DHT22;13129;48.012;10.352;2023-01-26T16:41:31;-1.10;99.90
25170;DHT22;13129;48.012;10.352;2023-01-26T16:44:01;-1.10;99.90
25170;DHT22;13129;48.012;10.352;2023-01-26T16:46:28;-1.20;99.90
25170;DHT22;13129;48.012;10.352;2023-01-26T16:48:55;-1.20;99.90
25170;DHT22;13129;48.012;10.352;2023-01-26T16:54:02;-1.20;99.90
25170;DHT22;13129;48.012;10.352;2023-01-26T16:56:28;-1.10;99.90
25170;DHT22;13129;48.012;10.352;2023-01-26T16:58:54;-1.20;99.90
25170;DHT22;13129;48.012;10.352;2023-01-26T17:01:25;-1.20;99.90
25170;DHT22;13129;48.012;10.352;2023-01-26T17:03:53;-1.20;99.90
25170;DHT22;13129;48.012;10.352;2023-01-26T17:06:20;-1.20;99.90
25170;DHT22;13129;48.012;10.352;2023-01-26T17:08:47;-1.20;99.90
25170;DHT22;13129;48.012;10.352;2023-01-26T17:11:27;-1.20;99.90
25170;DHT22;13129;48.012;10.352;2023-01-26T17:13:54;-1.20;99.90
25170;DHT22;13129;48.012;10.352;2023-01-26T17:16:27;-1.20;99.90
25170;DHT22;13129;48.012;10.352;2023-01-26T17:18:58;-1.30;99.90
25170;DHT22;13129;48.012;10.352;2023-01-26T17:21:25;-1.20;99.90
25170;DHT22;13129;48.012;10.352;2023-01-26T17:23:55;-1.20;99.90
25170;DHT22;13129;48.012;10.352;2023-01-26T17:26:21;-1.20;99.90
25170;DHT22;13129;48.012;10.352;2023-01-26T17:28:51;-1.20;99.90
25170;DHT22;13129;48.012;10.352;2023-01-26T17:31:19;-1.10;99.90
25170;DHT22;13129;48.012;10.352;2023-01-26T17:33:46;-1.20;99.90
25170;DHT22;13129;48.012;10.352;2023-01-26T17:36:12;-1.20;99.90
25170;DHT22;13129;48.012;10.352;2023-01-26T17:38:38;-1.20;99.90
25170;DHT22;13129;48.012;10.352;2023-01-26T17:41:05;-1.20;99.90
25170;DHT22;13129;48.012;10.352;2023-01-26T17:43:31;-1.20;99.90
25170;DHT22;13129;48.012;10.352;2023-01-26T17:48:27;-1.20;99.90
25170;DHT22;13129;48.012;10.352;2023-01-26T17:50:53;-1.20;99.90
25170;DHT22;13129;48.012;10.352;2023-01-26T17:53:18;-1.30;99.90
25170;DHT22;13129;48.012;10.352;2023-01-26T17:55:44;-1.20;99.90
25170;DHT22;13129;48.012;10.352;2023-01-26T17:58:10;-1.20;99.90
25170;DHT22;13129;48.012;10.352;2023-01-26T18:00:37;-1.30;99.90
25170;DHT22;13129;48.012;10.352;2023-01-26T18:03:03;-1.30;99.90
25170;DHT22;13129;48.012;10.352;2023-01-26T18:05:29;-1.30;99.90
25170;DHT22;13129;48.012;10.352;2023-01-26T18:07:55;-1.30;99.90
25170;DHT22;13129;48.012;10.352;2023-01-26T18:10:20;-1.30;99.90
25170;DHT22;13129;48.012;10.352;2023-01-26T18:12:46;-1.30;99.90
25170;DHT22;13129;48.012;10.352;2023-01-26T18:15:12;-1.20;99.90
25170;DHT22;13129;48.012;10.352;2023-01-26T18:17:37;-1.30;99.90
25170;DHT22;13129;48.012;10.352;2023-01-26T18:20:03;-1.30;99.90
25170;DHT22;13129;48.012;10.352;2023-01-26T18:22:29;-1.30;99.90
25170;DHT22;13129;48.012;10.352;2023-01-26T18:24:55;-1.30;99.90
25170;DHT22;13129;48.012;10.352;2023-01-26T18:27:21;-1.30;99.90
25170;DHT22;13129;48.012;10.352;2023-01-26T18:29:46;-1.30;99.90
25170;DHT22;13129;48.012;10.352;2023-01-26T18:32:12;-1.40;99.90
25170;DHT22;13129;48.012;10.352;2023-01-26T18:34:39;-1.50;99.90
25170;DHT22;13129;48.012;10.352;2023-01-26T18:37:07;-1.50;99.90
25170;DHT22;13129;48.012;10.352;2023-01-26T18:39:32;-1.50;99.90
25170;DHT22;13129;48.012;10.352;2023-01-26T18:41:58;-1.50;99.90
25170;DHT22;13129;48.012;10.352;2023-01-26T18:44:24;-1.50;99.90
25170;DHT22;13129;48.012;10.352;2023-01-26T18:46:50;-1.40;99.90
25170;DHT22;13129;48.012;10.352;2023-01-26T18:49:15;-1.40;99.90
25170;DHT22;13129;48.012;10.352;2023-01-26T18:51:42;-1.30;99.90
25170;DHT22;13129;48.012;10.352;2023-01-26T18:54:16;-1.30;99.90
25170;DHT22;13129;48.012;10.352;2023-01-26T18:56:43;-1.40;99.90
25170;DHT22;13129;48.012;10.352;2023-01-26T18:59:08;-1.40;99.90
25170;DHT22;13129;48.012;10.352;2023-01-26T19:01:35;-1.30;99.90
25170;DHT22;13129;48.012;10.352;2023-01-26T19:04:02;-1.30;99.90
25170;DHT22;13129;48.012;10.352;2023-01-26T19:06:28;-1.20;99.90
25170;DHT22;13129;48.012;10.352;2023-01-26T19:09:00;-1.20;99.90
25170;DHT22;13129;48.012;10.352;2023-01-26T19:11:32;-1.30;99.90
25170;DHT22;13129;48.012;10.352;2023-01-26T19:13:59;-1.30;99.90
25170;DHT22;13129;48.012;10.352;2023-01-26T19:16:25;-1.30;99.90
25170;DHT22;13129;48.012;10.352;2023-01-26T19:18:50;-1.20;99.90
25170;DHT22;13129;48.012;10.352;2023-01-26T19:21:16;-1.30;99.90
25170;DHT22;13129;48.012;10.352;2023-01-26T19:23:49;-1.30;99.90
25170;DHT22;13129;48.012;10.352;2023-01-26T19:26:19;-1.40;99.90
25170;DHT22;13129;48.012;10.352;2023-01-26T19:28:45;-1.40;99.90
25170;DHT22;13129;48.012;10.352;2023-01-26T19:31:11;-1.50;99.90
25170;DHT22;13129;48.012;10.352;2023-01-26T19:33:37;-1.50;99.90
25170;DHT22;13129;48.012;10.352;2023-01-26T19:36:04;-1.50;99.90
25170;DHT22;13129;48.012;10.352;2023-01-26T19:38:31;-1.50;99.90
25170;DHT22;13129;48.012;10.352;2023-01-26T19:40:59;-1.50;99.90
25170;DHT22;13129;48.012;10.352;2023-01-26T19:43:26;-1.50;99.90
25170;DHT22;13129;48.012;10.352;2023-01-26T19:45:53;-1.50;99.90
25170;DHT22;13129;48.012;10.352;2023-01-26T19:48:21;-1.50;99.90
25170;DHT22;13129;48.012;10.352;2023-01-26T19:51:01;-1.50;99.90
25170;DHT22;13129;48.012;10.352;2023-01-26T19:53:28;-1.40;99.90
25170;DHT22;13129;48.012;10.352;2023-01-26T19:55:54;-1.40;99.90
25170;DHT22;13129;48.012;10.352;2023-01-26T19:58:20;-1.40;99.90
25170;DHT22;13129;48.012;10.352;2023-01-26T20:00:46;-1.50;99.90
25170;DHT22;13129;48.012;10.352;2023-01-26T20:03:12;-1.50;99.90
25170;DHT22;13129;48.012;10.352;2023-01-26T20:05:37;-1.50;99.90
25170;DHT22;13129;48.012;10.352;2023-01-26T20:08:04;-1.50;99.90
25170;DHT22;13129;48.012;10.352;2023-01-26T20:10:30;-1.40;99.90
25170;DHT22;13129;48.012;10.352;2023-01-26T20:12:56;-1.40;99.90
25170;DHT22;13129;48.012;10.352;2023-01-26T20:15:23;-1.40;99.90
25170;DHT22;13129;48.012;10.352;2023-01-26T20:17:49;-1.50;99.90
25170;DHT22;13129;48.012;10.352;2023-01-26T20:20:14;-1.50;99.90
25170;DHT22;13129;48.012;10.352;2023-01-26T20:22:40;-1.50;99.90
25170;DHT22;13129;48.012;10.352;2023-01-26T20:25:07;-1.50;99.90
25170;DHT22;13129;48.012;10.352;2023-01-26T20:27:35;-1.60;99.90
25170;DHT22;13129;48.012;10.352;2023-01-26T20:30:02;-1.60;99.90
25170;DHT22;13129;48.012;10.352;2023-01-26T20:32:28;-1.60;99.90
25170;DHT22;13129;48.012;10.352;2023-01-26T20:34:54;-1.60;99.90
25170;DHT22;13129;48.012;10.352;2023-01-26T20:37:21;-1.60;99.90
25170;DHT22;13129;48.012;10.352;2023-01-26T20:39:47;-1.60;99.90
25170;DHT22;13129;48.012;10.352;2023-01-26T20:42:13;-1.60;99.90
25170;DHT22;13129;48.012;10.352;2023-01-26T20:44:41;-1.50;99.90
25170;DHT22;13129;48.012;10.352;2023-01-26T20:47:07;-1.50;99.90
25170;DHT22;13129;48.012;10.352;2023-01-26T20:49:32;-1.50;99.90
25170;DHT22;13129;48.012;10.352;2023-01-26T20:51:58;-1.50;99.90
25170;DHT22;13129;48.012;10.352;2023-01-26T20:54:24;-1.50;99.90
25170;DHT22;13129;48.012;10.352;2023-01-26T20:56:50;-1.50;99.90
25170;DHT22;13129;48.012;10.352;2023-01-26T20:59:16;-1.50;99.90
25170;DHT22;13129;48.012;10.352;2023-01-26T21:01:42;-1.50;99.90
25170;DHT22;13129;48.012;10.352;2023-01-26T21:04:08;-1.60;99.90
25170;DHT22;13129;48.012;10.352;2023-01-26T21:06:34;-1.50;99.90
25170;DHT22;13129;48.012;10.352;2023-01-26T21:09:01;-1.50;99.90
25170;DHT22;13129;48.012;10.352;2023-01-26T21:11:29;-1.50;99.90
25170;DHT22;13129;48.012;10.352;2023-01-26T21:13:57;-1.60;99.90
25170;DHT22;13129;48.012;10.352;2023-01-26T21:16:23;-1.50;99.90
25170;DHT22;13129;48.012;10.352;2023-01-26T21:18:49;-1.50;99.90